Terminal Aerodrome Forecast
Issued by NWS

Home | Current Version | Previous Version | Text Only | Print | Product List | Glossary On
Versions: 1 2 3 4 5 6 7 8 9 10 11 12 13
000
FTAK31 PAJN 020500
TAFAKT
TAF
PAKT 020530Z 0206/0306 30004KT P6SM SCT200
     FM021500 14010KT P6SM BKN100
     FM022100 14015KT P6SM -RA SCT025 BKN050 OVC100 WS020/12035KT
     FM030000 14020G30KT 6SM -RA SCT015 OVC030 WS020/12050KT
     FM030300 15015G25KT 4SM RA SCT006 OVC010 WS020/12035KT
      AMD LTD TO CLD VIS AND WIND 0206/0215=

USA.gov is the U.S. government's official web portal to all federal, state and local government web resources and services.